CheckWX is a tool to help pilots better visualize weather data.  It is not intended as a substitute for an official pre-flight weather briefing.

04:10:03 UTC

WSSS METAR
Singapore Changi International Airport
Singapore, Singapore
Current

40 mins ago

WSSS 270330Z 03007KT 340V080 9999 SCT018 BKN160 31/24 Q1011 NOSIG
Observed
Jan-27 @ 03:30 UTC
Wind
  • 030° at 7 KTS
Visibility
10,000+ meters
Flight Rules
VFR
Cloud Levels
  • Scattered at 1,800' AGL
  • Broken at 16,000' AGL
Temperature
31°C / 88°F
Dewpoint
24°C / 75°F
Heat Index
37°C / 98°F
Humidity
66%
Altimeter
29.85" Hg
Pressure
1010.92 hPa
Previous

1 hour ago

WSSS 270300Z 02005KT 310V090 9999 FEW018 BKN150 29/24 Q1011 NOSIG
Observed
Jan-27 @ 03:00 UTC
Wind
  • 020° at 5 KTS
Visibility
10,000+ meters
Flight Rules
VFR
Cloud Levels
  • Few at 1,800' AGL
  • Broken at 15,000' AGL
Temperature
29°C / 84°F
Dewpoint
24°C / 75°F
Heat Index
33°C / 92°F
Humidity
74%
Altimeter
29.85" Hg
Pressure
1010.92 hPa
Previous

2 hours ago

WSSS 270230Z 06009KT 020V080 9999 FEW018 BKN150 29/24 Q1011 NOSIG
Observed
Jan-27 @ 02:30 UTC
Wind
  • 060° at 9 KTS
Visibility
10,000+ meters
Flight Rules
VFR
Cloud Levels
  • Few at 1,800' AGL
  • Broken at 15,000' AGL
Temperature
29°C / 84°F
Dewpoint
24°C / 75°F
Heat Index
33°C / 92°F
Humidity
74%
Altimeter
29.85" Hg
Pressure
1010.92 hPa